Time;durP1;ratioP1;P1;durP2;ratioP2;P2;SDS_P1;SDS_P2;PMS_P1;PMS_P2;Temp;Humidity;BMP_temperature;BMP_pressure;BME280_temperature;BME280_humidity;BME280_pressure;Samples;Min_cycle;Max_cycle;Signal;HPM_P1;HPM_P2
2022/04/24 00:01:27;;;;;;;6.70;5.97;;;;;;;;;;4975056;28;20420;-51
2022/04/24 00:03:54;;;;;;;6.33;5.83;;;;;;;;;;4975603;28;20424;-55
2022/04/24 00:06:20;;;;;;;7.70;7.00;;;;;;;;;;4975542;28;20454;-52
2022/04/24 00:08:46;;;;;;;8.13;5.57;;;;;;;;;;4975346;28;20425;-54
2022/04/24 00:11:12;;;;;;;6.13;5.63;;;;;;;;;;4974633;28;20425;-55
2022/04/24 00:13:40;;;;;;;6.93;6.33;;;;;;;;;;4975594;28;20428;-53
2022/04/24 00:16:06;;;;;;;7.27;6.57;;;;;;;;;;4975484;28;20960;-55
2022/04/24 00:18:32;;;;;;;6.40;5.90;;;;;;;;;;4975179;28;20425;-54
2022/04/24 00:20:59;;;;;;;7.10;6.50;;;;;;;;;;4974633;28;20413;-54
2022/04/24 00:23:25;;;;;;;6.53;5.93;;;;;;;;;;4974971;28;20900;-55
2022/04/24 00:25:51;;;;;;;6.77;6.17;;;;;;;;;;4975275;28;20456;-55
2022/04/24 00:28:16;;;;;;;7.00;5.73;;;;;;;;;;4974881;28;20484;-52
2022/04/24 00:30:42;;;;;;;6.23;5.73;;;;;;;;;;4975152;28;20401;-54
2022/04/24 00:33:08;;;;;;;6.90;5.93;;;;;;;;;;4972893;28;20488;-54
2022/04/24 00:35:34;;;;;;;6.67;5.90;;;;;;;;;;4975088;28;20424;-53
2022/04/24 00:38:00;;;;;;;7.87;5.90;;;;;;;;;;4974905;28;20421;-51
2022/04/24 00:40:26;;;;;;;7.43;6.73;;;;;;;;;;4974991;28;20401;-52
2022/04/24 00:42:52;;;;;;;7.83;6.80;;;;;;;;;;4974119;28;21215;-54
2022/04/24 00:45:18;;;;;;;7.60;6.93;;;;;;;;;;4974822;28;20492;-54
2022/04/24 00:47:45;;;;;;;7.20;6.43;;;;;;;;;;4974336;28;20459;-54
2022/04/24 00:50:11;;;;;;;7.00;6.40;;;;;;;;;;4974782;28;20889;-54
2022/04/24 00:52:37;;;;;;;7.20;6.50;;;;;;;;;;4974123;28;20444;-54
2022/04/24 00:55:03;;;;;;;7.40;6.70;;;;;;;;;;4974788;28;20405;-53
2022/04/24 00:57:29;;;;;;;8.17;7.37;;;;;;;;;;4974492;28;20428;-54
2022/04/24 00:59:55;;;;;;;7.10;6.50;;;;;;;;;;4974620;28;20401;-54
2022/04/24 01:02:21;;;;;;;9.07;6.80;;;;;;;;;;4972744;28;20543;-52
2022/04/24 01:04:47;;;;;;;6.47;5.97;;;;;;;;;;4973958;28;20913;-54
2022/04/24 01:07:14;;;;;;;7.73;5.80;;;;;;;;;;4973901;28;20472;-54
2022/04/24 01:09:40;;;;;;;7.37;6.67;;;;;;;;;;4973543;28;20496;-54
2022/04/24 01:12:06;;;;;;;7.53;6.83;;;;;;;;;;4973392;28;20503;-54
2022/04/24 01:14:33;;;;;;;8.13;7.33;;;;;;;;;;4974273;28;20410;-53
2022/04/24 01:17:00;;;;;;;10.27;6.90;;;;;;;;;;4972750;28;20961;-51
2022/04/24 01:19:26;;;;;;;7.27;6.57;;;;;;;;;;4974068;28;20947;-53
2022/04/24 01:21:53;;;;;;;7.87;7.07;;;;;;;;;;4973359;28;20429;-53
2022/04/24 01:24:20;;;;;;;7.30;6.60;;;;;;;;;;4974232;28;20404;-53
2022/04/24 01:26:46;;;;;;;8.63;6.60;;;;;;;;;;4973813;28;20460;-53
2022/04/24 01:29:14;;;;;;;7.83;7.03;;;;;;;;;;4974189;28;20411;-54
2022/04/24 01:31:41;;;;;;;8.37;7.57;;;;;;;;;;4972425;28;20976;-51
2022/04/24 01:34:07;;;;;;;8.20;7.40;;;;;;;;;;4973791;28;20432;-54
2022/04/24 01:36:34;;;;;;;9.17;6.93;;;;;;;;;;4973885;28;20815;-54
2022/04/24 01:39:00;;;;;;;8.07;7.27;;;;;;;;;;4973574;28;20428;-54
2022/04/24 01:41:26;;;;;;;11.70;7.03;;;;;;;;;;4973073;28;20425;-54
2022/04/24 01:43:53;;;;;;;7.87;7.07;;;;;;;;;;4973692;28;20420;-54
2022/04/24 01:46:19;;;;;;;7.57;6.93;;;;;;;;;;4973811;28;20469;-54
2022/04/24 01:48:45;;;;;;;8.23;7.30;;;;;;;;;;4973450;28;20413;-51
2022/04/24 01:51:13;;;;;;;7.60;6.90;;;;;;;;;;4973252;28;20471;-54
2022/04/24 01:53:39;;;;;;;7.70;6.60;;;;;;;;;;4972948;28;20455;-54
2022/04/24 01:56:06;;;;;;;8.70;7.60;;;;;;;;;;4973623;28;20402;-53
2022/04/24 01:58:37;;;;;;;9.00;8.10;;;;;;;;;;4973134;28;20449;-53
2022/04/24 02:01:04;;;;;;;7.90;7.20;;;;;;;;;;4970827;28;20887;-53
2022/04/24 02:03:30;;;;;;;8.63;7.73;;;;;;;;;;4972754;28;20422;-54
2022/04/24 02:05:57;;;;;;;8.90;8.00;;;;;;;;;;4973498;28;20503;-51
2022/04/24 02:08:23;;;;;;;7.33;6.67;;;;;;;;;;4973236;28;20424;-53
2022/04/24 02:10:49;;;;;;;8.70;7.87;;;;;;;;;;4972692;28;20503;-51
2022/04/24 02:13:15;;;;;;;8.27;7.47;;;;;;;;;;4972599;28;21270;-53
2022/04/24 02:15:41;;;;;;;8.60;7.70;;;;;;;;;;4972957;28;20432;-55
2022/04/24 02:18:08;;;;;;;8.33;7.60;;;;;;;;;;4973106;28;20479;-53
2022/04/24 02:20:34;;;;;;;8.00;7.20;;;;;;;;;;4973124;28;20495;-55
2022/04/24 02:23:00;;;;;;;8.93;8.00;;;;;;;;;;4972078;28;20456;-54
2022/04/24 02:25:26;;;;;;;8.87;7.37;;;;;;;;;;4972334;28;20556;-52
2022/04/24 02:27:53;;;;;;;8.13;7.43;;;;;;;;;;4972989;28;20467;-52
2022/04/24 02:30:20;;;;;;;8.43;7.50;;;;;;;;;;4972849;28;20436;-54
2022/04/24 02:32:46;;;;;;;8.33;7.50;;;;;;;;;;4971305;28;20459;-51
2022/04/24 02:35:12;;;;;;;8.17;7.37;;;;;;;;;;4972755;28;20502;-54
2022/04/24 02:37:38;;;;;;;7.97;7.17;;;;;;;;;;4972895;28;20559;-53
2022/04/24 02:40:09;;;;;;;10.27;7.33;;;;;;;;;;4973004;28;20416;-53
2022/04/24 02:42:36;;;;;;;8.23;7.40;;;;;;;;;;4972202;28;20549;-51
2022/04/24 02:45:02;;;;;;;7.97;7.17;;;;;;;;;;4972869;28;20494;-54
2022/04/24 02:47:28;;;;;;;9.47;8.00;;;;;;;;;;4972460;28;21016;-54
2022/04/24 02:49:54;;;;;;;8.27;7.43;;;;;;;;;;4972699;28;20423;-51
2022/04/24 02:52:20;;;;;;;9.40;8.27;;;;;;;;;;4971964;28;20444;-51
2022/04/24 02:54:46;;;;;;;8.37;7.67;;;;;;;;;;4972680;28;20412;-52
2022/04/24 02:57:12;;;;;;;8.70;7.70;;;;;;;;;;4972737;28;20425;-53
2022/04/24 02:59:42;;;;;;;10.47;8.40;;;;;;;;;;4972627;28;20467;-53
2022/04/24 03:02:08;;;;;;;9.13;8.23;;;;;;;;;;4971880;28;20445;-54
2022/04/24 03:04:34;;;;;;;8.07;7.33;;;;;;;;;;4972581;28;20421;-53
2022/04/24 03:07:00;;;;;;;8.23;7.50;;;;;;;;;;4972602;28;20521;-54
2022/04/24 03:09:26;;;;;;;9.57;8.67;;;;;;;;;;4972455;28;20405;-54
2022/04/24 03:11:52;;;;;;;8.47;7.70;;;;;;;;;;4971980;28;20511;-53
2022/04/24 03:14:18;;;;;;;8.63;7.83;;;;;;;;;;4971264;28;20430;-53
2022/04/24 03:16:44;;;;;;;7.73;7.03;;;;;;;;;;4972613;28;20869;-53
2022/04/24 03:19:10;;;;;;;7.90;7.20;;;;;;;;;;4972221;28;20441;-53
2022/04/24 03:21:36;;;;;;;9.67;7.37;;;;;;;;;;4971984;28;20799;-53
2022/04/24 03:24:02;;;;;;;9.77;8.03;;;;;;;;;;4972542;28;20428;-48
2022/04/24 03:26:28;;;;;;;10.50;7.90;;;;;;;;;;4972608;28;21096;-48
2022/04/24 03:28:56;;;;;;;9.53;8.53;;;;;;;;;;4971939;28;20521;-48
2022/04/24 03:31:22;;;;;;;10.20;8.10;;;;;;;;;;4971047;28;20444;-48
2022/04/24 03:33:48;;;;;;;11.90;8.67;;;;;;;;;;4973909;28;20835;-48
2022/04/24 03:36:15;;;;;;;10.03;8.70;;;;;;;;;;4976260;28;20405;-48
2022/04/24 03:38:41;;;;;;;11.87;9.10;;;;;;;;;;4976009;28;20912;-48
2022/04/24 03:41:08;;;;;;;10.47;9.37;;;;;;;;;;4974112;28;20504;-52
2022/04/24 03:43:34;;;;;;;10.50;9.13;;;;;;;;;;4975775;28;20459;-51
2022/04/24 03:46:00;;;;;;;11.87;9.00;;;;;;;;;;4975977;28;20558;-51
2022/04/24 03:48:26;;;;;;;9.27;8.37;;;;;;;;;;4975843;28;20418;-51
2022/04/24 03:50:52;;;;;;;11.20;10.03;;;;;;;;;;4974943;28;20423;-51
2022/04/24 03:53:18;;;;;;;13.83;9.70;;;;;;;;;;4975805;28;20421;-51
2022/04/24 03:55:45;;;;;;;8.83;8.03;;;;;;;;;;4975982;28;20410;-51
2022/04/24 03:58:11;;;;;;;12.43;9.20;;;;;;;;;;4975473;28;20783;-51
2022/04/24 04:00:37;;;;;;;9.80;8.90;;;;;;;;;;4974420;28;20418;-51
2022/04/24 04:03:03;;;;;;;12.40;9.70;;;;;;;;;;4974794;28;20436;-51
2022/04/24 04:05:29;;;;;;;11.23;9.50;;;;;;;;;;4975692;28;20828;-52
2022/04/24 04:07:55;;;;;;;12.23;10.23;;;;;;;;;;4975793;28;20416;-52
2022/04/24 04:10:22;;;;;;;10.80;9.70;;;;;;;;;;4975259;28;20425;-52
2022/04/24 04:12:48;;;;;;;15.00;9.40;;;;;;;;;;4973552;28;20428;-52
2022/04/24 04:15:14;;;;;;;12.20;10.93;;;;;;;;;;4975051;28;20414;-50
2022/04/24 04:17:40;;;;;;;12.83;10.53;;;;;;;;;;4975533;28;20417;-51
2022/04/24 04:20:11;;;;;;;11.73;10.50;;;;;;;;;;4975063;28;20426;-52
2022/04/24 04:22:46;;;;;;;11.30;10.10;;;;;;;;;;4974641;28;20433;-51
2022/04/24 04:25:12;;;;;;;14.77;11.37;;;;;;;;;;4974911;28;20422;-51
2022/04/24 04:27:37;;;;;;;11.00;9.63;;;;;;;;;;4975469;28;20905;-51
2022/04/24 04:30:03;;;;;;;10.70;9.60;;;;;;;;;;4975078;28;20418;-51
2022/04/24 04:32:29;;;;;;;22.77;10.60;;;;;;;;;;4972871;28;20430;-52
2022/04/24 04:34:56;;;;;;;12.80;11.50;;;;;;;;;;4974882;28;20440;-51
2022/04/24 04:37:22;;;;;;;12.90;9.73;;;;;;;;;;4975186;28;20418;-51
2022/04/24 04:39:48;;;;;;;12.93;11.53;;;;;;;;;;4973642;28;20425;-52
2022/04/24 04:42:14;;;;;;;13.00;10.07;;;;;;;;;;4974298;28;20429;-51
2022/04/24 04:44:40;;;;;;;12.60;11.07;;;;;;;;;;4974606;28;20425;-52
2022/04/24 04:47:06;;;;;;;13.80;10.17;;;;;;;;;;4974820;28;20470;-52
2022/04/24 04:49:32;;;;;;;11.20;10.10;;;;;;;;;;4974601;28;20432;-51
2022/04/24 04:51:58;;;;;;;11.27;10.10;;;;;;;;;;4972912;28;21004;-51
2022/04/24 04:54:24;;;;;;;11.23;10.03;;;;;;;;;;4974797;28;20435;-52
2022/04/24 04:56:50;;;;;;;12.60;10.17;;;;;;;;;;4974643;28;20415;-51
2022/04/24 04:59:16;;;;;;;11.30;9.40;;;;;;;;;;4974496;28;20520;-51
2022/04/24 05:01:42;;;;;;;11.00;9.93;;;;;;;;;;4973963;28;20429;-52
2022/04/24 05:04:08;;;;;;;13.10;10.30;;;;;;;;;;4974431;28;20416;-51
2022/04/24 05:06:35;;;;;;;12.17;9.80;;;;;;;;;;4974367;28;20484;-53
2022/04/24 05:09:01;;;;;;;11.27;10.10;;;;;;;;;;4974180;28;20430;-53
2022/04/24 05:11:27;;;;;;;12.07;10.30;;;;;;;;;;4972578;28;20421;-54
2022/04/24 05:13:53;;;;;;;14.07;10.20;;;;;;;;;;4974356;28;20418;-53
2022/04/24 05:16:19;;;;;;;11.80;10.27;;;;;;;;;;4974370;28;20419;-53
2022/04/24 05:18:45;;;;;;;11.93;9.60;;;;;;;;;;4974130;28;20417;-51
2022/04/24 05:21:11;;;;;;;12.37;10.40;;;;;;;;;;4973415;28;20449;-50
2022/04/24 05:23:37;;;;;;;17.53;9.60;;;;;;;;;;4972928;28;20414;-51
2022/04/24 05:26:03;;;;;;;11.00;9.43;;;;;;;;;;4974239;28;20496;-54
2022/04/24 05:28:29;;;;;;;12.00;9.57;;;;;;;;;;4973989;28;20430;-53
2022/04/24 05:30:55;;;;;;;19.20;9.97;;;;;;;;;;4973211;28;20404;-49
2022/04/24 05:33:21;;;;;;;13.93;10.10;;;;;;;;;;4971893;28;20430;-50
2022/04/24 05:35:49;;;;;;;14.97;10.40;;;;;;;;;;4974052;28;20438;-50
2022/04/24 05:38:15;;;;;;;11.10;9.50;;;;;;;;;;4973776;28;20427;-53
2022/04/24 05:40:41;;;;;;;10.43;9.33;;;;;;;;;;4973897;28;20774;-50
2022/04/24 05:43:07;;;;;;;12.90;10.67;;;;;;;;;;4971990;28;20491;-50
2022/04/24 05:45:34;;;;;;;11.03;9.90;;;;;;;;;;4973720;28;20500;-50
2022/04/24 05:48:00;;;;;;;12.30;9.70;;;;;;;;;;4973684;28;20420;-50
2022/04/24 05:50:26;;;;;;;10.27;9.10;;;;;;;;;;4973841;28;20493;-50
2022/04/24 05:52:55;;;;;;;12.57;10.77;;;;;;;;;;4972835;28;20523;-50
2022/04/24 05:55:22;;;;;;;12.63;10.00;;;;;;;;;;4973527;28;20401;-51
2022/04/24 05:57:50;;;;;;;13.17;9.90;;;;;;;;;;4971872;28;20417;-51
2022/04/24 06:00:17;;;;;;;18.13;9.67;;;;;;;;;;4973325;28;20409;-50
2022/04/24 06:02:43;;;;;;;13.70;8.60;;;;;;;;;;4972644;28;20433;-53
2022/04/24 06:05:10;;;;;;;10.87;9.77;;;;;;;;;;4973413;28;20402;-53
2022/04/24 06:07:37;;;;;;;10.33;8.77;;;;;;;;;;4973232;28;20428;-53
2022/04/24 06:10:03;;;;;;;10.30;8.73;;;;;;;;;;4973295;28;20400;-53
2022/04/24 06:12:29;;;;;;;9.70;8.57;;;;;;;;;;4972391;28;20460;-50
2022/04/24 06:14:55;;;;;;;12.07;9.10;;;;;;;;;;4973265;28;20406;-50
2022/04/24 06:17:21;;;;;;;10.40;8.40;;;;;;;;;;4973388;28;20413;-51
2022/04/24 06:19:47;;;;;;;9.57;8.57;;;;;;;;;;4971872;28;20425;-50
2022/04/24 06:22:13;;;;;;;9.67;8.20;;;;;;;;;;4972542;28;20450;-50
2022/04/24 06:24:39;;;;;;;10.50;9.03;;;;;;;;;;4972783;28;20439;-49
2022/04/24 06:27:05;;;;;;;9.47;8.30;;;;;;;;;;4973025;28;20567;-50
2022/04/24 06:29:31;;;;;;;15.50;8.70;;;;;;;;;;4973313;28;20752;-50
2022/04/24 06:31:57;;;;;;;10.60;7.83;;;;;;;;;;4970965;28;20428;-50
2022/04/24 06:34:23;;;;;;;12.23;9.27;;;;;;;;;;4972683;28;20441;-50
2022/04/24 06:36:49;;;;;;;12.97;8.60;;;;;;;;;;4973116;28;20488;-49
2022/04/24 06:39:15;;;;;;;9.90;8.13;;;;;;;;;;4972535;28;20429;-50
2022/04/24 06:41:41;;;;;;;9.50;8.17;;;;;;;;;;4972412;28;20933;-50
2022/04/24 06:44:07;;;;;;;10.50;8.80;;;;;;;;;;4973063;28;20425;-50
2022/04/24 06:46:33;;;;;;;10.33;8.30;;;;;;;;;;4972940;28;20976;-50
2022/04/24 06:48:59;;;;;;;9.13;8.23;;;;;;;;;;4972674;28;20799;-51
2022/04/24 06:51:25;;;;;;;9.47;8.50;;;;;;;;;;4972309;28;21055;-50
2022/04/24 06:53:51;;;;;;;8.97;8.07;;;;;;;;;;4972695;28;20409;-50
2022/04/24 06:56:17;;;;;;;11.43;9.07;;;;;;;;;;4955938;28;20483;-49
2022/04/24 06:58:43;;;;;;;11.33;8.00;;;;;;;;;;4972668;28;20484;-49
2022/04/24 07:01:09;;;;;;;8.13;7.30;;;;;;;;;;4972310;28;20437;-49
2022/04/24 07:03:35;;;;;;;16.37;8.50;;;;;;;;;;4972383;28;20421;-54
2022/04/24 07:06:01;;;;;;;11.80;10.47;;;;;;;;;;4972855;28;20492;-52
2022/04/24 07:08:29;;;;;;;10.50;7.93;;;;;;;;;;4973801;28;20420;-54
2022/04/24 07:10:55;;;;;;;10.90;7.70;;;;;;;;;;4976061;28;20416;-53
2022/04/24 07:13:21;;;;;;;9.40;8.03;;;;;;;;;;4976424;28;20488;-54
2022/04/24 07:15:48;;;;;;;10.20;7.97;;;;;;;;;;4976706;28;20990;-53
2022/04/24 07:18:14;;;;;;;9.13;8.23;;;;;;;;;;4976363;28;20409;-53
2022/04/24 07:20:40;;;;;;;13.67;8.20;;;;;;;;;;4976323;28;20439;-55
2022/04/24 07:23:06;;;;;;;14.43;8.50;;;;;;;;;;4975360;28;20444;-54
2022/04/24 07:25:37;;;;;;;9.20;8.33;;;;;;;;;;4976227;28;20459;-54
2022/04/24 07:28:04;;;;;;;9.33;8.33;;;;;;;;;;4976529;28;20894;-54
2022/04/24 07:30:30;;;;;;;8.40;7.60;;;;;;;;;;4976178;28;20437;-54
2022/04/24 07:32:57;;;;;;;11.33;8.47;;;;;;;;;;4975674;28;20435;-55
2022/04/24 07:35:27;;;;;;;11.83;7.83;;;;;;;;;;4975927;28;20407;-54
2022/04/24 07:37:53;;;;;;;8.73;7.60;;;;;;;;;;4975866;28;20405;-53
2022/04/24 07:40:21;;;;;;;8.70;7.53;;;;;;;;;;4976294;28;20405;-54
2022/04/24 07:42:55;;;;;;;9.37;7.10;;;;;;;;;;4974189;28;20407;-55
2022/04/24 07:45:25;;;;;;;7.67;6.97;;;;;;;;;;4975904;28;20434;-55
2022/04/24 07:47:51;;;;;;;9.80;7.57;;;;;;;;;;4976085;28;20411;-55
2022/04/24 07:50:18;;;;;;;9.13;7.77;;;;;;;;;;4974703;28;20837;-55
2022/04/24 07:52:45;;;;;;;8.20;7.50;;;;;;;;;;4975062;28;20966;-54
2022/04/24 07:55:12;;;;;;;9.83;8.50;;;;;;;;;;4975792;28;20400;-54
2022/04/24 07:57:39;;;;;;;8.47;7.40;;;;;;;;;;4975781;28;20416;-55
2022/04/24 08:00:05;;;;;;;9.43;7.77;;;;;;;;;;4975894;28;20782;-56
2022/04/24 08:02:31;;;;;;;8.30;7.50;;;;;;;;;;4974935;28;20444;-53
2022/04/24 08:04:57;;;;;;;9.17;8.30;;;;;;;;;;4958376;28;20497;-54
2022/04/24 08:07:23;;;;;;;7.80;7.00;;;;;;;;;;4975421;28;20911;-53
2022/04/24 08:09:49;;;;;;;8.10;7.13;;;;;;;;;;4975632;28;21122;-56
2022/04/24 08:12:16;;;;;;;8.50;7.70;;;;;;;;;;4974809;28;20472;-56
2022/04/24 08:14:42;;;;;;;7.80;7.10;;;;;;;;;;4975554;28;20491;-53
2022/04/24 08:17:08;;;;;;;11.53;8.87;;;;;;;;;;4975252;28;20842;-55
2022/04/24 08:19:34;;;;;;;9.30;7.93;;;;;;;;;;4974530;28;20431;-55
2022/04/24 08:22:00;;;;;;;8.13;7.33;;;;;;;;;;4972987;28;20445;-56
2022/04/24 08:24:26;;;;;;;8.47;7.63;;;;;;;;;;4973789;28;20412;-55
2022/04/24 08:26:52;;;;;;;14.13;7.47;;;;;;;;;;4973158;28;20511;-55
2022/04/24 08:29:18;;;;;;;8.40;7.60;;;;;;;;;;4974604;28;20947;-56
2022/04/24 08:31:44;;;;;;;8.00;7.20;;;;;;;;;;4974302;28;20441;-56
2022/04/24 08:34:10;;;;;;;8.90;8.10;;;;;;;;;;4974934;28;20421;-54
2022/04/24 08:36:35;;;;;;;11.07;8.70;;;;;;;;;;4974870;28;20453;-54
2022/04/24 08:39:01;;;;;;;8.37;7.77;;;;;;;;;;4975209;28;20409;-55
2022/04/24 08:41:37;;;;;;;8.83;7.37;;;;;;;;;;4974102;28;20447;-55
2022/04/24 08:44:07;;;;;;;9.60;8.60;;;;;;;;;;4975160;28;20405;-54
2022/04/24 08:46:33;;;;;;;8.60;7.90;;;;;;;;;;4974785;28;20455;-56
2022/04/24 08:49:00;;;;;;;8.50;7.70;;;;;;;;;;4975163;28;20759;-55
2022/04/24 08:51:27;;;;;;;14.93;7.20;;;;;;;;;;4974154;28;20444;-53
2022/04/24 08:53:54;;;;;;;7.83;7.23;;;;;;;;;;4974599;28;20424;-54
2022/04/24 08:56:20;;;;;;;11.80;7.67;;;;;;;;;;4974721;28;20940;-55
2022/04/24 08:58:46;;;;;;;8.03;7.33;;;;;;;;;;4974721;28;20401;-55
2022/04/24 09:01:12;;;;;;;9.80;8.53;;;;;;;;;;4973634;28;21080;-55
2022/04/24 09:03:37;;;;;;;10.03;8.00;;;;;;;;;;4974953;28;20420;-52
2022/04/24 09:06:03;;;;;;;8.90;8.10;;;;;;;;;;4974393;28;20460;-56
2022/04/24 09:08:32;;;;;;;11.87;8.87;;;;;;;;;;4972954;28;20427;-56
2022/04/24 09:10:58;;;;;;;11.30;9.10;;;;;;;;;;4974027;28;20431;-56
2022/04/24 09:13:25;;;;;;;11.27;9.07;;;;;;;;;;4973708;28;20507;-54
2022/04/24 09:15:55;;;;;;;8.63;7.90;;;;;;;;;;4974359;28;20402;-54
2022/04/24 09:18:21;;;;;;;8.90;8.10;;;;;;;;;;4973917;28;20421;-55
2022/04/24 09:20:54;;;;;;;9.80;8.97;;;;;;;;;;4974015;28;20409;-56
2022/04/24 09:23:20;;;;;;;8.77;7.90;;;;;;;;;;4974434;28;20456;-55
2022/04/24 09:25:47;;;;;;;10.10;9.17;;;;;;;;;;4973209;28;20878;-56
2022/04/24 09:28:13;;;;;;;11.20;10.20;;;;;;;;;;4956864;28;20788;-55
2022/04/24 09:30:48;;;;;;;11.40;10.30;;;;;;;;;;4973260;28;20889;-56
2022/04/24 09:33:14;;;;;;;8.70;7.90;;;;;;;;;;4958992;28;20902;-56
2022/04/24 09:35:42;;;;;;;11.03;10.03;;;;;;;;;;4973839;28;20984;-54
2022/04/24 09:38:09;;;;;;;11.33;9.37;;;;;;;;;;4974100;28;20563;-56
2022/04/24 09:40:42;;;;;;;9.53;8.70;;;;;;;;;;4973559;28;20413;-54
2022/04/24 09:43:10;;;;;;;8.87;8.07;;;;;;;;;;4967172;28;20445;-54
2022/04/24 09:45:37;;;;;;;9.17;8.37;;;;;;;;;;4973711;28;20979;-51
2022/04/24 09:48:10;;;;;;;10.10;9.20;;;;;;;;;;4974070;28;20409;-52
2022/04/24 09:50:36;;;;;;;13.63;9.20;;;;;;;;;;4973543;28;20480;-51
2022/04/24 09:53:13;;;;;;;11.60;8.90;;;;;;;;;;5105590;27;20338;-52
2022/04/24 09:55:40;;;;;;;9.67;8.87;;;;;;;;;;5089026;28;20439;-51
2022/04/24 09:58:08;;;;;;;12.13;8.90;;;;;;;;;;5089217;28;20399;-52
2022/04/24 10:00:34;;;;;;;12.13;8.40;;;;;;;;;;5088904;28;20407;-53
2022/04/24 10:03:04;;;;;;;9.37;8.47;;;;;;;;;;5088366;28;20904;-53
2022/04/24 10:05:31;;;;;;;11.93;9.40;;;;;;;;;;5088621;28;20903;-52
2022/04/24 10:07:57;;;;;;;8.70;8.00;;;;;;;;;;5088866;28;20483;-51
2022/04/24 10:10:23;;;;;;;8.00;7.40;;;;;;;;;;5087546;28;20480;-54
2022/04/24 10:12:51;;;;;;;11.63;8.10;;;;;;;;;;5098626;28;20871;-52
2022/04/24 10:15:18;;;;;;;9.50;8.60;;;;;;;;;;5088561;28;20427;-52
2022/04/24 10:17:46;;;;;;;10.47;9.10;;;;;;;;;;5088836;28;20412;-52
2022/04/24 10:20:22;;;;;;;10.03;8.40;;;;;;;;;;5088015;28;20469;-51
2022/04/24 10:22:50;;;;;;;9.60;8.37;;;;;;;;;;5087786;28;20450;-52
2022/04/24 10:25:16;;;;;;;10.23;8.30;;;;;;;;;;5088556;28;20403;-51
2022/04/24 10:27:42;;;;;;;7.87;7.27;;;;;;;;;;5088476;28;20415;-52
2022/04/24 10:30:11;;;;;;;10.93;8.27;;;;;;;;;;5088442;28;20812;-51
2022/04/24 10:32:37;;;;;;;7.73;6.83;;;;;;;;;;5087445;28;20427;-52
2022/04/24 10:35:15;;;;;;;10.13;8.10;;;;;;;;;;5088137;28;20411;-52
2022/04/24 10:37:42;;;;;;;8.70;7.90;;;;;;;;;;5088516;28;20395;-50
2022/04/24 10:40:12;;;;;;;8.63;7.83;;;;;;;;;;5088206;28;20399;-50
2022/04/24 10:42:39;;;;;;;8.03;7.43;;;;;;;;;;5087683;28;20459;-52
2022/04/24 10:45:07;;;;;;;14.83;7.27;;;;;;;;;;5088162;28;20395;-52
2022/04/24 10:47:42;;;;;;;7.87;7.27;;;;;;;;;;5084981;28;20817;-49
2022/04/24 10:50:09;;;;;;;8.77;7.37;;;;;;;;;;5086092;28;21033;-50
2022/04/24 10:52:41;;;;;;;8.67;7.87;;;;;;;;;;5085695;28;20440;-52
2022/04/24 10:55:08;;;;;;;10.23;9.27;;;;;;;;;;5086176;28;20406;-52
2022/04/24 10:57:40;;;;;;;9.17;8.37;;;;;;;;;;5087425;28;20404;-51
2022/04/24 11:00:13;;;;;;;10.43;7.40;;;;;;;;;;5087817;28;20411;-50
2022/04/24 11:02:39;;;;;;;8.27;7.57;;;;;;;;;;5084115;28;20484;-53
2022/04/24 11:05:06;;;;;;;9.87;8.87;;;;;;;;;;5074035;28;20439;-53
2022/04/24 11:07:33;;;;;;;8.70;8.00;;;;;;;;;;5074092;28;20417;-50
2022/04/24 11:10:09;;;;;;;8.03;7.33;;;;;;;;;;5073050;28;20431;-51
2022/04/24 11:12:35;;;;;;;11.40;7.83;;;;;;;;;;5072965;28;20457;-51
2022/04/24 11:15:21;;;;;;;14.57;8.70;;;;;;;;;;5073404;28;20419;-52
2022/04/24 11:17:48;;;;;;;7.90;7.20;;;;;;;;;;5071853;28;20421;-51
2022/04/24 11:20:15;;;;;;;9.40;8.60;;;;;;;;;;5064676;28;20448;-51
2022/04/24 11:22:55;;;;;;;8.77;7.87;;;;;;;;;;5072671;28;20521;-53
2022/04/24 11:25:22;;;;;;;8.13;7.53;;;;;;;;;;5073566;28;20809;-53
2022/04/24 11:27:52;;;;;;;8.37;7.67;;;;;;;;;;5073868;28;20420;-54
2022/04/24 11:30:19;;;;;;;7.77;7.17;;;;;;;;;;5074708;28;20867;-54
2022/04/24 11:33:14;;;;;;;7.70;7.10;;;;;;;;;;5073201;28;20424;-53
2022/04/24 11:35:41;;;;;;;8.20;7.40;;;;;;;;;;5072616;28;20425;-54
2022/04/24 11:38:08;;;;;;;8.67;7.30;;;;;;;;;;5073311;28;20423;-54
2022/04/24 11:40:36;;;;;;;8.43;7.73;;;;;;;;;;5072776;28;20931;-56
2022/04/24 11:43:06;;;;;;;8.00;7.30;;;;;;;;;;5088104;28;21042;-49
2022/04/24 11:51:23;;;;;;;7.83;7.10;;;;;;;;;;5072906;28;20890;-50
2022/04/24 11:53:49;;;;;;;8.20;7.40;;;;;;;;;;5073592;28;20413;-50
2022/04/24 11:56:15;;;;;;;8.30;7.57;;;;;;;;;;5073334;28;20545;-52
2022/04/24 11:58:44;;;;;;;8.83;8.03;;;;;;;;;;5073054;28;20420;-51
2022/04/24 12:01:13;;;;;;;11.47;9.00;;;;;;;;;;5072447;28;20503;-53
2022/04/24 12:03:43;;;;;;;8.70;7.90;;;;;;;;;;5070370;28;20412;-56
2022/04/24 12:06:13;;;;;;;9.97;9.00;;;;;;;;;;5072865;28;20410;-55
2022/04/24 12:08:40;;;;;;;9.20;8.40;;;;;;;;;;5073021;28;20415;-56
2022/04/24 12:11:06;;;;;;;8.97;8.17;;;;;;;;;;5072296;28;20423;-56
2022/04/24 12:13:34;;;;;;;9.00;8.17;;;;;;;;;;5072803;28;20990;-57
2022/04/24 12:16:01;;;;;;;10.13;9.27;;;;;;;;;;5071479;28;20458;-56
2022/04/24 12:18:28;;;;;;;9.13;8.33;;;;;;;;;;5061863;28;20416;-56
2022/04/24 12:20:55;;;;;;;9.60;8.50;;;;;;;;;;5072212;28;20409;-55
2022/04/24 12:23:22;;;;;;;9.70;7.90;;;;;;;;;;5072954;28;20467;-56
2022/04/24 12:25:53;;;;;;;8.17;7.37;;;;;;;;;;5072892;28;20404;-56
2022/04/24 12:28:31;;;;;;;7.93;7.33;;;;;;;;;;5072861;28;20915;-52
2022/04/24 12:30:57;;;;;;;7.60;7.00;;;;;;;;;;5071763;28;20538;-52
2022/04/24 12:33:24;;;;;;;9.30;7.60;;;;;;;;;;5072322;28;20958;-52
2022/04/24 12:35:50;;;;;;;8.47;7.77;;;;;;;;;;5071003;28;20483;-52
2022/04/24 12:38:17;;;;;;;9.00;7.70;;;;;;;;;;5072291;28;20448;-51
2022/04/24 12:40:57;;;;;;;8.00;7.40;;;;;;;;;;5071182;28;20502;-52
2022/04/24 12:43:24;;;;;;;8.87;8.07;;;;;;;;;;5056392;28;20929;-50
2022/04/24 12:45:50;;;;;;;8.20;7.50;;;;;;;;;;5072288;28;20401;-52
2022/04/24 12:48:16;;;;;;;8.70;7.40;;;;;;;;;;5072077;28;20435;-52
2022/04/24 12:50:43;;;;;;;8.30;7.70;;;;;;;;;;5071783;28;20756;-52
2022/04/24 12:53:09;;;;;;;9.30;7.70;;;;;;;;;;5071853;28;20455;-53
2022/04/24 12:55:35;;;;;;;8.77;7.70;;;;;;;;;;5072533;28;20400;-54
2022/04/24 12:58:02;;;;;;;8.97;7.13;;;;;;;;;;5071942;28;20501;-53
2022/04/24 13:00:29;;;;;;;7.43;6.70;;;;;;;;;;5071903;28;20400;-54
2022/04/24 13:02:55;;;;;;;7.10;6.50;;;;;;;;;;5070970;28;20464;-54
2022/04/24 13:05:21;;;;;;;6.70;6.10;;;;;;;;;;5072101;28;20411;-50
2022/04/24 13:07:47;;;;;;;7.83;7.00;;;;;;;;;;5071890;28;20477;-54
2022/04/24 13:10:14;;;;;;;7.57;6.97;;;;;;;;;;5071727;28;20436;-56
2022/04/24 13:12:40;;;;;;;9.43;6.50;;;;;;;;;;5070697;28;20447;-55
2022/04/24 13:15:06;;;;;;;7.23;6.73;;;;;;;;;;5071644;28;20420;-55
2022/04/24 13:20:17;;;;;;;7.23;6.60;;;;;;;;;;5071130;28;20466;-56
2022/04/24 13:22:43;;;;;;;7.80;7.10;;;;;;;;;;5070553;28;20456;-54
2022/04/24 13:25:09;;;;;;;7.33;6.70;;;;;;;;;;5071472;28;20412;-52
2022/04/24 13:27:35;;;;;;;9.40;6.47;;;;;;;;;;5071227;28;20487;-53
2022/04/24 13:30:01;;;;;;;7.13;6.50;;;;;;;;;;5071275;28;20499;-56
2022/04/24 13:32:27;;;;;;;10.40;8.07;;;;;;;;;;5070931;28;20443;-56
2022/04/24 13:34:53;;;;;;;7.20;6.60;;;;;;;;;;5071241;28;20495;-52
2022/04/24 13:40:05;;;;;;;8.07;7.40;;;;;;;;;;5070604;28;20446;-55
2022/04/24 13:42:31;;;;;;;8.23;7.53;;;;;;;;;;5071250;28;20470;-50
2022/04/24 13:44:57;;;;;;;7.50;6.80;;;;;;;;;;5071455;28;20491;-54
2022/04/24 13:47:24;;;;;;;7.57;6.97;;;;;;;;;;5071353;28;20986;-54
2022/04/24 13:49:51;;;;;;;7.40;6.77;;;;;;;;;;5071153;28;20409;-56
2022/04/24 13:52:17;;;;;;;8.30;7.50;;;;;;;;;;5070427;28;20940;-51
2022/04/24 13:54:43;;;;;;;7.70;7.10;;;;;;;;;;5071199;28;20453;-53
2022/04/24 13:57:09;;;;;;;7.00;6.30;;;;;;;;;;5071596;28;20415;-52
2022/04/24 13:59:36;;;;;;;10.53;7.70;;;;;;;;;;5071217;28;20431;-51
2022/04/24 14:02:02;;;;;;;6.53;6.03;;;;;;;;;;5068698;28;20980;-51
2022/04/24 14:04:28;;;;;;;7.60;6.73;;;;;;;;;;5071231;28;20422;-51
2022/04/24 14:06:54;;;;;;;8.00;7.30;;;;;;;;;;5071582;28;20407;-51
2022/04/24 14:09:20;;;;;;;8.23;7.30;;;;;;;;;;5070549;28;20420;-52
2022/04/24 14:11:45;;;;;;;7.90;6.73;;;;;;;;;;5070437;28;20436;-52
2022/04/24 14:14:11;;;;;;;8.17;7.47;;;;;;;;;;5071139;28;20454;-53
2022/04/24 14:16:37;;;;;;;7.50;6.90;;;;;;;;;;5070807;28;20781;-52
2022/04/24 14:19:03;;;;;;;6.63;6.03;;;;;;;;;;5070958;28;20452;-52
2022/04/24 14:21:29;;;;;;;7.53;6.93;;;;;;;;;;5070074;28;20473;-52
2022/04/24 14:23:55;;;;;;;7.30;6.70;;;;;;;;;;5070784;28;20424;-51
2022/04/24 14:26:21;;;;;;;7.73;6.77;;;;;;;;;;5070932;28;20454;-52
2022/04/24 14:28:47;;;;;;;7.97;6.80;;;;;;;;;;5070850;28;20412;-51
2022/04/24 14:31:13;;;;;;;6.50;6.00;;;;;;;;;;5070483;28;20478;-52
2022/04/24 14:33:39;;;;;;;9.50;6.80;;;;;;;;;;5071411;28;20490;-51
2022/04/24 14:36:05;;;;;;;8.43;7.00;;;;;;;;;;5071129;28;20423;-52
2022/04/24 14:38:31;;;;;;;11.20;7.10;;;;;;;;;;5072586;28;20506;-51
2022/04/24 14:40:58;;;;;;;6.70;6.20;;;;;;;;;;5072714;28;20537;-53
2022/04/24 14:43:24;;;;;;;8.37;6.87;;;;;;;;;;5074754;28;20896;-52
2022/04/24 14:56:49;;;;;;;7.20;6.57;;;;;;;;;;5074006;28;20460;-53
2022/04/24 14:59:15;;;;;;;6.43;5.93;;;;;;;;;;5073995;28;20484;-52